createdAt,value
2023-02-26T00:01:00.119Z,85.19
2023-02-26T00:04:05.751Z,83.79
2023-02-26T00:07:10.570Z,84.55
2023-02-26T00:10:16.975Z,84.52
2023-02-26T00:13:21.363Z,84.76
2023-02-26T00:16:38.119Z,84.84
2023-02-26T00:19:42.696Z,84.95
2023-02-26T00:22:48.243Z,85.44
2023-02-26T00:25:50.850Z,85.50
2023-02-26T00:28:54.221Z,85.34
2023-02-26T00:31:58.801Z,85.62
2023-02-26T00:35:03.694Z,85.01
2023-02-26T00:38:12.008Z,85.08
2023-02-26T00:41:19.957Z,87.05
2023-02-26T00:44:23.688Z,85.28
2023-02-26T00:47:36.277Z,85.18
2023-02-26T00:50:49.042Z,85.51
2023-02-26T00:54:10.463Z,85.58
2023-02-26T00:57:15.307Z,85.67
2023-02-26T01:00:19.515Z,85.42
2023-02-26T01:03:23.151Z,85.63
2023-02-26T01:06:29.488Z,85.25
2023-02-26T01:09:35.811Z,85.85
2023-02-26T01:12:40.077Z,85.33
2023-02-26T01:15:50.508Z,84.68
2023-02-26T01:18:58.037Z,85.12
2023-02-26T01:22:04.396Z,85.54
2023-02-26T01:25:11.072Z,86.20
2023-02-26T01:28:19.961Z,84.52
2023-02-26T01:31:38.806Z,84.07
2023-02-26T01:35:11.559Z,84.60
2023-02-26T01:38:21.298Z,84.33
2023-02-26T01:41:26.542Z,84.36
2023-02-26T01:44:40.801Z,84.13
2023-02-26T01:48:13.309Z,84.35
2023-02-26T01:51:24.048Z,84.37
2023-02-26T01:54:34.824Z,85.25
2023-02-26T01:57:42.858Z,84.50
2023-02-26T02:00:45.817Z,86.15
2023-02-26T02:03:52.490Z,85.04
2023-02-26T02:06:56.401Z,84.63
2023-02-26T02:10:00.905Z,85.59
2023-02-26T02:13:17.554Z,85.26
2023-02-26T02:16:37.100Z,85.03
2023-02-26T02:19:59.142Z,85.59
2023-02-26T02:23:26.314Z,86.71
2023-02-26T02:26:45.671Z,86.01
2023-02-26T02:29:56.150Z,85.88
2023-02-26T02:33:03.432Z,86.39
2023-02-26T02:36:27.052Z,87.60
2023-02-26T02:39:34.181Z,87.93
2023-02-26T02:42:53.022Z,87.35
2023-02-26T02:46:01.827Z,87.96
2023-02-26T02:49:11.719Z,87.82
2023-02-26T02:52:21.987Z,88.72
2023-02-26T02:55:37.782Z,88.42
2023-02-26T02:58:43.740Z,88.68
2023-02-26T03:01:54.092Z,89.08
2023-02-26T03:04:56.775Z,89.25
2023-02-26T03:08:13.894Z,89.15
2023-02-26T03:11:19.852Z,89.21
2023-02-26T03:14:24.710Z,90.13
2023-02-26T03:17:32.177Z,90.47
2023-02-26T03:20:41.108Z,90.20
2023-02-26T03:24:09.001Z,88.70
2023-02-26T03:27:25.184Z,90.38
2023-02-26T03:30:41.720Z,88.44
2023-02-26T03:33:58.096Z,89.24
2023-02-26T03:37:21.478Z,90.39
2023-02-26T03:40:25.065Z,89.17
2023-02-26T03:43:32.320Z,89.65
2023-02-26T03:46:37.588Z,87.84
2023-02-26T03:49:52.666Z,87.38
2023-02-26T03:52:57.403Z,88.86
2023-02-26T03:56:11.353Z,89.21
2023-02-26T03:59:17.595Z,90.30
2023-02-26T04:02:27.422Z,88.00
2023-02-26T04:05:34.179Z,89.87
2023-02-26T04:08:41.159Z,88.92
2023-02-26T04:11:47.100Z,88.65
2023-02-26T04:14:54.279Z,88.81
2023-02-26T04:17:58.583Z,88.41
2023-02-26T04:21:10.803Z,88.14
2023-02-26T04:24:13.580Z,88.69
2023-02-26T04:27:16.973Z,88.42
2023-02-26T04:30:24.899Z,89.81
2023-02-26T04:33:29.110Z,89.32
2023-02-26T04:36:35.362Z,90.25
2023-02-26T04:39:40.275Z,89.78
2023-02-26T04:42:47.265Z,90.11
2023-02-26T04:45:50.914Z,89.27
2023-02-26T04:48:55.306Z,88.69
2023-02-26T04:52:01.455Z,89.29
2023-02-26T04:55:09.687Z,88.40
2023-02-26T04:58:14.204Z,88.34
2023-02-26T05:01:18.458Z,87.50
2023-02-26T05:04:21.433Z,87.73
2023-02-26T05:07:26.755Z,89.50
2023-02-26T05:10:30.893Z,89.71
2023-02-26T05:13:36.961Z,87.32
2023-02-26T05:16:43.523Z,89.07
2023-02-26T05:19:50.934Z,88.08
2023-02-26T05:22:56.152Z,88.12
2023-02-26T05:26:07.641Z,88.23
2023-02-26T05:29:12.671Z,88.74
2023-02-26T05:32:15.880Z,89.64
2023-02-26T05:35:22.132Z,89.76
2023-02-26T05:38:27.595Z,90.48
2023-02-26T05:41:30.478Z,90.53
2023-02-26T05:44:39.513Z,91.01
2023-02-26T05:47:43.608Z,90.43
2023-02-26T05:50:59.915Z,89.67
2023-02-26T05:54:08.837Z,88.95
2023-02-26T05:57:14.933Z,88.26
2023-02-26T06:00:19.424Z,88.64
2023-02-26T06:03:23.943Z,88.28
2023-02-26T06:06:27.434Z,88.72
2023-02-26T06:09:30.725Z,89.07
2023-02-26T06:12:36.284Z,89.70
2023-02-26T06:15:39.589Z,88.63
2023-02-26T06:18:55.618Z,88.93
2023-02-26T06:22:03.004Z,89.99
2023-02-26T06:25:08.696Z,87.33
2023-02-26T06:28:11.209Z,88.81
2023-02-26T06:31:14.801Z,88.14
2023-02-26T06:34:21.053Z,88.60
2023-02-26T06:37:28.880Z,88.47
2023-02-26T06:40:35.660Z,88.04
2023-02-26T06:43:42.357Z,90.53
2023-02-26T06:46:51.174Z,89.21
2023-02-26T06:50:01.727Z,86.91
2023-02-26T06:53:06.481Z,86.94
2023-02-26T06:56:13.946Z,87.16
2023-02-26T06:59:24.074Z,84.98
2023-02-26T07:02:33.160Z,85.86
2023-02-26T07:05:46.294Z,85.70
2023-02-26T07:08:51.801Z,84.31
2023-02-26T07:11:55.731Z,83.31
2023-02-26T07:15:00.867Z,83.92
2023-02-26T07:18:04.480Z,83.18
2023-02-26T07:21:11.491Z,83.43
2023-02-26T07:24:17.632Z,84.07
2023-02-26T07:27:21.132Z,83.06
2023-02-26T07:30:31.698Z,82.30
2023-02-26T07:33:46.168Z,81.88
2023-02-26T07:36:57.024Z,80.59
2023-02-26T07:40:00.160Z,80.26
2023-02-26T07:43:03.721Z,78.71
2023-02-26T07:46:08.002Z,75.90
2023-02-26T07:49:13.914Z,75.95
2023-02-26T07:52:19.538Z,76.64
2023-02-26T07:55:22.836Z,75.87
2023-02-26T07:58:25.831Z,76.48
2023-02-26T08:01:28.260Z,76.09
2023-02-26T08:04:34.033Z,75.44
2023-02-26T08:07:38.120Z,73.58
2023-02-26T08:10:42.774Z,73.91
2023-02-26T08:13:46.944Z,73.06
2023-02-26T08:16:50.026Z,74.34
2023-02-26T08:19:53.344Z,73.26
2023-02-26T08:22:59.067Z,73.10
2023-02-26T08:26:10.915Z,73.80
2023-02-26T08:29:19.037Z,73.62
2023-02-26T08:32:25.436Z,74.69
2023-02-26T08:35:30.680Z,73.85
2023-02-26T08:38:36.424Z,74.36
2023-02-26T08:41:39.111Z,74.93
2023-02-26T08:44:44.480Z,75.36
2023-02-26T08:47:56.533Z,74.95
2023-02-26T08:51:02.834Z,75.94
2023-02-26T08:54:07.957Z,75.56
2023-02-26T08:57:11.562Z,74.95
2023-02-26T09:00:18.955Z,75.73
2023-02-26T09:03:23.408Z,74.18
2023-02-26T09:06:28.429Z,73.28
2023-02-26T09:09:31.462Z,73.26
2023-02-26T09:12:36.553Z,72.33
2023-02-26T09:15:41.794Z,71.97
2023-02-26T09:18:45.693Z,72.59
2023-02-26T09:21:50.463Z,72.73
2023-02-26T09:24:53.806Z,72.59
2023-02-26T09:27:57.815Z,72.11
2023-02-26T09:31:07.771Z,71.36
2023-02-26T09:34:11.671Z,72.41
2023-02-26T09:37:15.394Z,72.40
2023-02-26T09:40:36.520Z,71.30
2023-02-26T09:43:45.652Z,70.97
2023-02-26T09:47:03.077Z,70.75
2023-02-26T09:50:12.847Z,70.07
2023-02-26T09:53:18.687Z,68.33
2023-02-26T09:56:29.374Z,67.07
2023-02-26T09:59:40.123Z,66.77
2023-02-26T10:02:57.131Z,66.85
2023-02-26T10:06:07.192Z,66.56
2023-02-26T10:09:29.851Z,67.27
2023-02-26T10:12:38.900Z,67.91
2023-02-26T10:15:44.754Z,66.77
2023-02-26T10:18:50.774Z,67.04
2023-02-26T10:22:12.975Z,66.76
2023-02-26T10:25:22.387Z,63.71
2023-02-26T10:28:28.918Z,63.16
2023-02-26T10:31:54.371Z,60.83
2023-02-26T10:35:02.778Z,60.75
2023-02-26T10:38:09.450Z,60.75
2023-02-26T10:41:19.098Z,61.59
2023-02-26T10:44:30.083Z,61.01
2023-02-26T10:47:54.566Z,59.65
2023-02-26T10:50:58.087Z,60.41
2023-02-26T10:54:05.049Z,59.84
2023-02-26T10:57:16.545Z,58.19
2023-02-26T11:00:21.040Z,56.40
2023-02-26T11:03:34.666Z,56.91
2023-02-26T11:06:48.532Z,56.58
2023-02-26T11:09:52.152Z,58.25
2023-02-26T11:12:55.691Z,60.43
2023-02-26T11:16:04.375Z,56.96
2023-02-26T11:19:08.304Z,58.38
2023-02-26T11:22:14.656Z,58.21
2023-02-26T11:25:19.083Z,59.54
2023-02-26T11:28:35.604Z,59.98
2023-02-26T11:31:42.088Z,60.45
2023-02-26T11:34:49.582Z,61.89
2023-02-26T11:37:56.427Z,60.20
2023-02-26T11:41:00.547Z,61.00
2023-02-26T11:44:05.413Z,62.30
2023-02-26T11:47:11.603Z,63.45
2023-02-26T11:50:23.641Z,63.63
2023-02-26T11:53:35.957Z,63.17
2023-02-26T11:56:42.831Z,61.46
2023-02-26T11:59:48.117Z,61.75
2023-02-26T12:02:50.337Z,60.19
2023-02-26T12:05:55.369Z,62.28
2023-02-26T12:08:57.717Z,61.36
2023-02-26T12:12:19.166Z,60.88
2023-02-26T12:15:29.026Z,61.83
2023-02-26T12:18:52.404Z,62.89
2023-02-26T12:22:13.118Z,64.01
2023-02-26T12:25:34.644Z,61.16
2023-02-26T12:28:48.980Z,60.98
2023-02-26T12:32:01.732Z,61.18
2023-02-26T12:35:23.018Z,61.60
2023-02-26T12:39:00.819Z,60.33
2023-02-26T12:42:29.435Z,60.66
2023-02-26T12:45:38.469Z,59.79
2023-02-26T12:49:04.501Z,59.88
2023-02-26T12:52:22.390Z,60.81
2023-02-26T12:55:35.349Z,60.63
2023-02-26T12:58:54.720Z,60.58
2023-02-26T13:02:01.626Z,58.76
2023-02-26T13:05:23.926Z,59.02
2023-02-26T13:08:34.282Z,59.58
2023-02-26T13:11:48.637Z,59.02
2023-02-26T13:15:16.135Z,59.74
2023-02-26T13:18:20.840Z,60.00
2023-02-26T13:21:27.219Z,58.86
2023-02-26T13:24:57.431Z,59.01
2023-02-26T13:28:01.710Z,59.51
2023-02-26T13:31:06.229Z,59.04
2023-02-26T13:34:14.789Z,59.74
2023-02-26T13:37:28.961Z,61.73
2023-02-26T13:40:32.133Z,61.37
2023-02-26T13:43:36.249Z,62.42
2023-02-26T13:46:42.718Z,61.56
2023-02-26T13:49:54.003Z,63.53
2023-02-26T13:53:05.912Z,64.75
2023-02-26T13:56:17.261Z,66.13
2023-02-26T13:59:30.925Z,67.17
2023-02-26T14:02:56.748Z,66.59
2023-02-26T14:06:11.580Z,66.31
2023-02-26T14:09:28.322Z,65.96
2023-02-26T14:12:43.614Z,66.45
2023-02-26T14:15:56.739Z,66.49
2023-02-26T14:19:06.273Z,65.67
2023-02-26T14:22:26.438Z,64.05
2023-02-26T14:25:32.926Z,65.48
2023-02-26T14:28:43.404Z,64.09
2023-02-26T14:32:05.368Z,64.90
2023-02-26T14:35:22.174Z,65.42
2023-02-26T14:38:27.687Z,67.12
2023-02-26T14:41:35.482Z,68.13
2023-02-26T14:44:42.816Z,68.60
2023-02-26T14:47:49.141Z,68.91
2023-02-26T14:51:11.652Z,70.00
2023-02-26T14:54:33.517Z,70.05
2023-02-26T14:57:48.915Z,68.83
2023-02-26T15:01:20.761Z,66.90
2023-02-26T15:04:39.109Z,66.63
2023-02-26T15:07:49.447Z,66.13
2023-02-26T15:10:54.852Z,65.74
2023-02-26T15:14:09.889Z,66.54
2023-02-26T15:17:17.894Z,65.62
2023-02-26T15:20:47.313Z,67.05
2023-02-26T15:23:52.763Z,64.49
2023-02-26T15:26:59.357Z,66.25
2023-02-26T15:30:03.677Z,65.79
2023-02-26T15:33:16.978Z,65.61
2023-02-26T15:36:26.046Z,65.99
2023-02-26T15:39:28.686Z,65.63
2023-02-26T15:42:33.879Z,65.95
2023-02-26T15:45:42.758Z,66.61
2023-02-26T15:48:47.186Z,66.97
2023-02-26T15:51:52.423Z,66.35
2023-02-26T15:54:59.812Z,66.14
2023-02-26T15:58:04.683Z,67.07
2023-02-26T16:01:08.765Z,67.53
2023-02-26T16:04:18.717Z,67.63
2023-02-26T16:07:22.833Z,67.78
2023-02-26T16:10:44.867Z,67.95
2023-02-26T16:13:50.138Z,67.98
2023-02-26T16:16:55.462Z,66.72
2023-02-26T16:20:02.845Z,66.84
2023-02-26T16:23:17.341Z,67.24
2023-02-26T16:26:41.724Z,65.65
2023-02-26T16:29:52.436Z,66.13
2023-02-26T16:32:57.422Z,65.62
2023-02-26T16:36:04.584Z,66.01
2023-02-26T16:39:09.333Z,65.64
2023-02-26T16:42:40.119Z,66.63
2023-02-26T16:45:51.445Z,65.84
2023-02-26T16:49:06.231Z,65.81
2023-02-26T16:52:19.136Z,65.95
2023-02-26T16:55:28.356Z,65.40
2023-02-26T16:58:36.494Z,66.21
2023-02-26T17:01:46.075Z,65.67
2023-02-26T17:04:54.972Z,65.20
2023-02-26T17:08:10.549Z,65.21
2023-02-26T17:11:32.712Z,66.24
2023-02-26T17:14:43.273Z,66.80
2023-02-26T17:17:47.142Z,67.85
2023-02-26T17:20:50.128Z,68.22
2023-02-26T17:24:02.435Z,68.15
2023-02-26T17:27:09.820Z,68.55
2023-02-26T17:30:17.836Z,69.24
2023-02-26T17:33:23.484Z,69.73
2023-02-26T17:36:27.918Z,70.57
2023-02-26T17:39:32.320Z,71.32
2023-02-26T17:42:34.903Z,72.05
2023-02-26T17:45:41.126Z,72.10
2023-02-26T17:48:44.209Z,72.51
2023-02-26T17:51:48.599Z,72.81
2023-02-26T17:54:55.520Z,72.68
2023-02-26T17:57:58.976Z,73.57
2023-02-26T18:01:08.566Z,73.55
2023-02-26T18:04:13.738Z,73.33
2023-02-26T18:07:19.135Z,73.78
2023-02-26T18:10:27.942Z,74.79
2023-02-26T18:13:34.735Z,74.46
2023-02-26T18:16:40.091Z,74.59
2023-02-26T18:19:44.189Z,74.53
2023-02-26T18:22:49.113Z,75.28
2023-02-26T18:25:54.898Z,75.23
2023-02-26T18:28:57.441Z,74.88
2023-02-26T18:32:03.628Z,75.41
2023-02-26T18:35:13.041Z,75.59
2023-02-26T18:38:21.868Z,75.27
2023-02-26T18:41:28.744Z,75.19
2023-02-26T18:44:34.505Z,74.47
2023-02-26T18:47:39.370Z,73.88
2023-02-26T18:50:42.218Z,74.32
2023-02-26T18:53:51.840Z,74.40
2023-02-26T18:57:03.469Z,74.25
2023-02-26T19:00:16.082Z,74.36
2023-02-26T19:03:19.874Z,73.78
2023-02-26T19:06:22.346Z,73.00
2023-02-26T19:09:25.863Z,73.70
2023-02-26T19:12:32.017Z,72.99
2023-02-26T19:15:35.436Z,72.53
2023-02-26T19:18:38.396Z,72.97
2023-02-26T19:21:42.398Z,72.72
2023-02-26T19:24:47.969Z,72.82
2023-02-26T19:27:56.280Z,72.72
2023-02-26T19:31:00.431Z,72.77
2023-02-26T19:34:09.198Z,73.70
2023-02-26T19:37:16.668Z,74.48
2023-02-26T19:40:21.328Z,75.22
2023-02-26T19:43:26.358Z,75.32
2023-02-26T19:46:29.966Z,75.98
2023-02-26T19:49:33.802Z,77.28
2023-02-26T19:52:40.955Z,75.79
2023-02-26T19:55:48.879Z,77.81
2023-02-26T19:58:55.136Z,75.88
2023-02-26T20:02:03.580Z,76.20
2023-02-26T20:05:08.480Z,76.25
2023-02-26T20:08:16.180Z,76.34
2023-02-26T20:11:22.342Z,76.92
2023-02-26T20:14:29.327Z,76.67
2023-02-26T20:17:33.427Z,77.45
2023-02-26T20:20:45.034Z,74.29
2023-02-26T20:23:50.881Z,71.97
2023-02-26T20:26:54.476Z,72.55
2023-02-26T20:29:59.373Z,70.95
2023-02-26T20:33:02.486Z,70.26
2023-02-26T20:36:11.140Z,70.40
2023-02-26T20:39:19.253Z,69.52
2023-02-26T20:42:22.340Z,68.23
2023-02-26T20:45:25.010Z,66.05
2023-02-26T20:48:29.538Z,65.91
2023-02-26T20:51:35.065Z,66.03
2023-02-26T20:54:38.291Z,66.02
2023-02-26T20:57:46.803Z,65.20
2023-02-26T21:00:50.020Z,66.56
2023-02-26T21:03:56.500Z,65.03
2023-02-26T21:07:13.776Z,64.27
2023-02-26T21:10:19.335Z,64.57
2023-02-26T21:13:25.896Z,62.54
2023-02-26T21:16:30.410Z,59.19
2023-02-26T21:19:38.555Z,59.03
2023-02-26T21:22:41.545Z,58.65
2023-02-26T21:25:50.257Z,57.31
2023-02-26T21:28:53.153Z,57.51
2023-02-26T21:32:00.020Z,58.66
2023-02-26T21:35:05.883Z,58.83
2023-02-26T21:38:11.068Z,58.81
2023-02-26T21:41:15.650Z,58.56
2023-02-26T21:44:20.510Z,58.44
2023-02-26T21:47:23.369Z,57.78
2023-02-26T21:50:26.102Z,56.41
2023-02-26T21:53:28.853Z,56.65
2023-02-26T21:56:32.842Z,56.79
2023-02-26T21:59:40.533Z,57.71
2023-02-26T22:02:48.708Z,56.98
2023-02-26T22:05:53.962Z,57.83
2023-02-26T22:09:00.673Z,56.77
2023-02-26T22:12:04.052Z,56.98
2023-02-26T22:15:09.176Z,56.63
2023-02-26T22:18:13.511Z,57.22
2023-02-26T22:21:24.438Z,58.04
2023-02-26T22:24:28.726Z,58.29
2023-02-26T22:27:39.771Z,58.33
2023-02-26T22:30:45.221Z,58.24
2023-02-26T22:33:53.256Z,58.20
2023-02-26T22:36:59.626Z,58.39
2023-02-26T22:40:04.672Z,58.89
2023-02-26T22:43:08.525Z,59.57
2023-02-26T22:46:17.594Z,58.84
2023-02-26T22:49:22.142Z,59.55
2023-02-26T22:52:26.551Z,59.33
2023-02-26T22:55:30.575Z,59.92
2023-02-26T22:58:36.937Z,59.92
2023-02-26T23:01:41.437Z,60.43
2023-02-26T23:04:46.416Z,60.63
2023-02-26T23:07:50.527Z,60.57
2023-02-26T23:10:57.599Z,61.05
2023-02-26T23:14:00.905Z,61.06
2023-02-26T23:17:05.427Z,60.86
2023-02-26T23:20:11.175Z,61.50
2023-02-26T23:23:21.420Z,61.39
2023-02-26T23:26:27.147Z,61.45
2023-02-26T23:29:32.834Z,61.31
2023-02-26T23:32:37.014Z,61.67
2023-02-26T23:35:41.799Z,62.36
2023-02-26T23:38:46.154Z,61.79
2023-02-26T23:41:50.008Z,61.97
2023-02-26T23:44:53.496Z,62.08
2023-02-26T23:47:57.305Z,62.07
2023-02-26T23:51:03.401Z,62.00
2023-02-26T23:54:05.650Z,61.96
2023-02-26T23:57:08.543Z,62.66
